sensor_id;sensor_type;location;lat;lon;timestamp;P1;durP1;ratioP1;P2;durP2;ratioP2
67597;SDS011;62026;39.230;9.122;2023-08-21T00:01:22;10.93;;;4.80;;
67597;SDS011;62026;39.230;9.122;2023-08-21T00:03:48;8.68;;;4.72;;
67597;SDS011;62026;39.230;9.122;2023-08-21T00:06:14;9.57;;;4.50;;
67597;SDS011;62026;39.230;9.122;2023-08-21T00:08:40;7.93;;;4.53;;
67597;SDS011;62026;39.230;9.122;2023-08-21T00:11:06;9.15;;;4.13;;
67597;SDS011;62026;39.230;9.122;2023-08-21T00:13:32;8.65;;;4.50;;
67597;SDS011;62026;39.230;9.122;2023-08-21T00:15:58;5.95;;;3.83;;
67597;SDS011;62026;39.230;9.122;2023-08-21T00:18:25;10.52;;;4.43;;
67597;SDS011;62026;39.230;9.122;2023-08-21T00:20:51;7.60;;;4.53;;
67597;SDS011;62026;39.230;9.122;2023-08-21T00:23:17;8.82;;;4.13;;
67597;SDS011;62026;39.230;9.122;2023-08-21T00:25:45;9.15;;;4.57;;
67597;SDS011;62026;39.230;9.122;2023-08-21T00:28:13;8.68;;;4.00;;
67597;SDS011;62026;39.230;9.122;2023-08-21T00:30:39;10.57;;;4.57;;
67597;SDS011;62026;39.230;9.122;2023-08-21T00:33:07;8.10;;;4.45;;
67597;SDS011;62026;39.230;9.122;2023-08-21T00:35:33;8.38;;;4.30;;
67597;SDS011;62026;39.230;9.122;2023-08-21T00:37:59;6.15;;;4.00;;
67597;SDS011;62026;39.230;9.122;2023-08-21T00:40:25;8.40;;;4.35;;
67597;SDS011;62026;39.230;9.122;2023-08-21T00:42:51;8.73;;;4.07;;
67597;SDS011;62026;39.230;9.122;2023-08-21T00:45:17;6.97;;;3.80;;
67597;SDS011;62026;39.230;9.122;2023-08-21T00:47:43;10.05;;;4.10;;
67597;SDS011;62026;39.230;9.122;2023-08-21T00:50:09;7.20;;;3.75;;
67597;SDS011;62026;39.230;9.122;2023-08-21T00:52:39;9.87;;;3.97;;
67597;SDS011;62026;39.230;9.122;2023-08-21T00:55:10;7.78;;;3.60;;
67597;SDS011;62026;39.230;9.122;2023-08-21T00:57:37;8.35;;;4.00;;
67597;SDS011;62026;39.230;9.122;2023-08-21T01:00:05;7.07;;;3.75;;
67597;SDS011;62026;39.230;9.122;2023-08-21T01:02:35;10.35;;;4.95;;
67597;SDS011;62026;39.230;9.122;2023-08-21T01:05:01;8.55;;;4.50;;
67597;SDS011;62026;39.230;9.122;2023-08-21T01:07:29;6.53;;;3.88;;
67597;SDS011;62026;39.230;9.122;2023-08-21T01:12:56;6.80;;;3.80;;
67597;SDS011;62026;39.230;9.122;2023-08-21T01:15:50;6.57;;;3.97;;
67597;SDS011;62026;39.230;9.122;2023-08-21T01:18:18;5.93;;;3.80;;
67597;SDS011;62026;39.230;9.122;2023-08-21T01:20:48;7.15;;;3.60;;
67597;SDS011;62026;39.230;9.122;2023-08-21T01:23:32;7.22;;;3.47;;
67597;SDS011;62026;39.230;9.122;2023-08-21T01:25:58;7.65;;;3.72;;
67597;SDS011;62026;39.230;9.122;2023-08-21T01:28:24;9.40;;;3.40;;
67597;SDS011;62026;39.230;9.122;2023-08-21T01:30:52;7.53;;;3.53;;
67597;SDS011;62026;39.230;9.122;2023-08-21T01:33:29;11.07;;;3.38;;
67597;SDS011;62026;39.230;9.122;2023-08-21T01:36:02;5.45;;;3.15;;
67597;SDS011;62026;39.230;9.122;2023-08-21T01:38:33;5.07;;;3.28;;
67597;SDS011;62026;39.230;9.122;2023-08-21T01:41:00;7.68;;;3.10;;
67597;SDS011;62026;39.230;9.122;2023-08-21T01:43:27;10.30;;;2.97;;
67597;SDS011;62026;39.230;9.122;2023-08-21T01:45:54;8.43;;;3.15;;
67597;SDS011;62026;39.230;9.122;2023-08-21T01:48:20;5.28;;;2.85;;
67597;SDS011;62026;39.230;9.122;2023-08-21T01:50:46;6.82;;;3.22;;
67597;SDS011;62026;39.230;9.122;2023-08-21T01:53:12;11.57;;;3.40;;
67597;SDS011;62026;39.230;9.122;2023-08-21T01:55:38;7.05;;;3.20;;
67597;SDS011;62026;39.230;9.122;2023-08-21T01:58:04;8.02;;;3.35;;
67597;SDS011;62026;39.230;9.122;2023-08-21T02:00:30;6.00;;;3.03;;
67597;SDS011;62026;39.230;9.122;2023-08-21T02:02:56;8.52;;;3.20;;
67597;SDS011;62026;39.230;9.122;2023-08-21T02:05:22;7.20;;;3.00;;
67597;SDS011;62026;39.230;9.122;2023-08-21T02:07:48;4.75;;;3.03;;
67597;SDS011;62026;39.230;9.122;2023-08-21T02:10:14;5.53;;;3.08;;
67597;SDS011;62026;39.230;9.122;2023-08-21T02:12:40;6.13;;;3.20;;
67597;SDS011;62026;39.230;9.122;2023-08-21T02:15:06;4.85;;;2.78;;
67597;SDS011;62026;39.230;9.122;2023-08-21T02:17:32;7.05;;;3.10;;
67597;SDS011;62026;39.230;9.122;2023-08-21T02:19:58;4.50;;;3.00;;
67597;SDS011;62026;39.230;9.122;2023-08-21T02:22:25;6.93;;;2.95;;
67597;SDS011;62026;39.230;9.122;2023-08-21T02:24:50;12.55;;;2.90;;
67597;SDS011;62026;39.230;9.122;2023-08-21T02:27:17;8.48;;;2.90;;
67597;SDS011;62026;39.230;9.122;2023-08-21T02:29:43;5.35;;;2.90;;
67597;SDS011;62026;39.230;9.122;2023-08-21T02:32:09;10.35;;;3.08;;
67597;SDS011;62026;39.230;9.122;2023-08-21T02:34:35;7.72;;;3.00;;
67597;SDS011;62026;39.230;9.122;2023-08-21T02:37:01;5.60;;;3.30;;
67597;SDS011;62026;39.230;9.122;2023-08-21T02:39:28;6.28;;;3.50;;
67597;SDS011;62026;39.230;9.122;2023-08-21T02:41:54;6.93;;;3.50;;
67597;SDS011;62026;39.230;9.122;2023-08-21T02:44:20;6.93;;;3.40;;
67597;SDS011;62026;39.230;9.122;2023-08-21T02:46:46;6.80;;;3.45;;
67597;SDS011;62026;39.230;9.122;2023-08-21T02:49:12;9.40;;;3.40;;
67597;SDS011;62026;39.230;9.122;2023-08-21T02:51:38;7.75;;;3.10;;
67597;SDS011;62026;39.230;9.122;2023-08-21T02:54:04;6.72;;;3.22;;
67597;SDS011;62026;39.230;9.122;2023-08-21T02:56:32;10.20;;;3.60;;
67597;SDS011;62026;39.230;9.122;2023-08-21T02:58:58;6.82;;;3.30;;
67597;SDS011;62026;39.230;9.122;2023-08-21T03:01:24;6.13;;;3.42;;
67597;SDS011;62026;39.230;9.122;2023-08-21T03:03:50;7.28;;;3.50;;
67597;SDS011;62026;39.230;9.122;2023-08-21T03:06:16;7.95;;;3.40;;
67597;SDS011;62026;39.230;9.122;2023-08-21T03:08:42;5.97;;;3.40;;
67597;SDS011;62026;39.230;9.122;2023-08-21T03:11:09;6.20;;;3.40;;
67597;SDS011;62026;39.230;9.122;2023-08-21T03:13:35;9.52;;;3.38;;
67597;SDS011;62026;39.230;9.122;2023-08-21T03:16:01;4.07;;;2.90;;
67597;SDS011;62026;39.230;9.122;2023-08-21T03:18:29;7.35;;;3.33;;
67597;SDS011;62026;39.230;9.122;2023-08-21T03:20:57;8.30;;;3.47;;
67597;SDS011;62026;39.230;9.122;2023-08-21T03:23:23;4.72;;;3.50;;
67597;SDS011;62026;39.230;9.122;2023-08-21T03:25:52;8.50;;;3.40;;
67597;SDS011;62026;39.230;9.122;2023-08-21T03:28:18;6.28;;;3.22;;
67597;SDS011;62026;39.230;9.122;2023-08-21T03:30:44;7.93;;;3.35;;
67597;SDS011;62026;39.230;9.122;2023-08-21T03:33:10;8.48;;;3.30;;
67597;SDS011;62026;39.230;9.122;2023-08-21T03:35:37;12.27;;;3.72;;
67597;SDS011;62026;39.230;9.122;2023-08-21T03:38:03;9.38;;;3.33;;
67597;SDS011;62026;39.230;9.122;2023-08-21T03:40:37;6.72;;;3.03;;
67597;SDS011;62026;39.230;9.122;2023-08-21T03:43:05;6.78;;;3.20;;
67597;SDS011;62026;39.230;9.122;2023-08-21T03:45:31;6.25;;;3.22;;
67597;SDS011;62026;39.230;9.122;2023-08-21T03:47:57;9.07;;;3.63;;
67597;SDS011;62026;39.230;9.122;2023-08-21T03:50:23;6.72;;;3.47;;
67597;SDS011;62026;39.230;9.122;2023-08-21T03:52:50;9.98;;;3.55;;
67597;SDS011;62026;39.230;9.122;2023-08-21T03:55:16;5.82;;;3.20;;
67597;SDS011;62026;39.230;9.122;2023-08-21T03:57:41;9.50;;;3.38;;
67597;SDS011;62026;39.230;9.122;2023-08-21T04:00:08;5.90;;;3.35;;
67597;SDS011;62026;39.230;9.122;2023-08-21T04:02:40;10.32;;;3.40;;
67597;SDS011;62026;39.230;9.122;2023-08-21T04:05:08;7.82;;;3.60;;
67597;SDS011;62026;39.230;9.122;2023-08-21T04:07:36;8.20;;;3.33;;
67597;SDS011;62026;39.230;9.122;2023-08-21T04:10:02;6.13;;;3.20;;
67597;SDS011;62026;39.230;9.122;2023-08-21T04:12:29;8.30;;;3.50;;
67597;SDS011;62026;39.230;9.122;2023-08-21T04:14:55;9.68;;;3.40;;
67597;SDS011;62026;39.230;9.122;2023-08-21T04:17:21;10.85;;;3.42;;
67597;SDS011;62026;39.230;9.122;2023-08-21T04:19:48;11.57;;;4.15;;
67597;SDS011;62026;39.230;9.122;2023-08-21T04:22:17;8.55;;;3.58;;
67597;SDS011;62026;39.230;9.122;2023-08-21T04:24:44;8.05;;;3.30;;
67597;SDS011;62026;39.230;9.122;2023-08-21T04:27:10;11.00;;;3.25;;
67597;SDS011;62026;39.230;9.122;2023-08-21T04:29:36;7.30;;;3.10;;
67597;SDS011;62026;39.230;9.122;2023-08-21T04:32:05;10.27;;;3.00;;
67597;SDS011;62026;39.230;9.122;2023-08-21T04:34:32;5.85;;;3.47;;
67597;SDS011;62026;39.230;9.122;2023-08-21T04:36:58;7.30;;;3.10;;
67597;SDS011;62026;39.230;9.122;2023-08-21T04:39:25;9.63;;;3.40;;
67597;SDS011;62026;39.230;9.122;2023-08-21T04:41:52;7.30;;;3.22;;
67597;SDS011;62026;39.230;9.122;2023-08-21T04:44:19;5.90;;;3.22;;
67597;SDS011;62026;39.230;9.122;2023-08-21T04:46:48;7.55;;;3.40;;
67597;SDS011;62026;39.230;9.122;2023-08-21T04:49:17;5.38;;;3.30;;
67597;SDS011;62026;39.230;9.122;2023-08-21T04:51:43;12.05;;;3.03;;
67597;SDS011;62026;39.230;9.122;2023-08-21T04:54:09;8.98;;;3.10;;
67597;SDS011;62026;39.230;9.122;2023-08-21T04:56:36;5.45;;;3.20;;
67597;SDS011;62026;39.230;9.122;2023-08-21T04:59:02;9.02;;;3.20;;
67597;SDS011;62026;39.230;9.122;2023-08-21T05:01:30;5.68;;;2.97;;
67597;SDS011;62026;39.230;9.122;2023-08-21T05:03:57;8.75;;;3.33;;
67597;SDS011;62026;39.230;9.122;2023-08-21T05:06:24;5.93;;;3.08;;
67597;SDS011;62026;39.230;9.122;2023-08-21T05:08:50;7.25;;;3.30;;
67597;SDS011;62026;39.230;9.122;2023-08-21T05:11:16;5.82;;;2.70;;
67597;SDS011;62026;39.230;9.122;2023-08-21T05:13:42;8.15;;;2.90;;
67597;SDS011;62026;39.230;9.122;2023-08-21T05:16:11;7.03;;;3.20;;
67597;SDS011;62026;39.230;9.122;2023-08-21T05:18:39;10.68;;;3.00;;
67597;SDS011;62026;39.230;9.122;2023-08-21T05:21:05;7.50;;;3.58;;
67597;SDS011;62026;39.230;9.122;2023-08-21T05:23:31;8.13;;;3.00;;
67597;SDS011;62026;39.230;9.122;2023-08-21T05:26:03;7.55;;;3.20;;
67597;SDS011;62026;39.230;9.122;2023-08-21T05:28:30;6.25;;;3.08;;
67597;SDS011;62026;39.230;9.122;2023-08-21T05:30:56;8.32;;;3.20;;
67597;SDS011;62026;39.230;9.122;2023-08-21T05:33:23;7.68;;;3.22;;
67597;SDS011;62026;39.230;9.122;2023-08-21T05:35:50;7.80;;;3.33;;
67597;SDS011;62026;39.230;9.122;2023-08-21T05:38:16;6.78;;;3.65;;
67597;SDS011;62026;39.230;9.122;2023-08-21T05:40:41;6.32;;;3.42;;
67597;SDS011;62026;39.230;9.122;2023-08-21T05:43:08;7.88;;;3.50;;
67597;SDS011;62026;39.230;9.122;2023-08-21T05:45:36;9.23;;;3.53;;
67597;SDS011;62026;39.230;9.122;2023-08-21T05:48:02;7.78;;;3.53;;
67597;SDS011;62026;39.230;9.122;2023-08-21T05:50:29;7.07;;;3.40;;
67597;SDS011;62026;39.230;9.122;2023-08-21T05:52:55;10.73;;;3.20;;
67597;SDS011;62026;39.230;9.122;2023-08-21T05:55:23;7.68;;;3.38;;
67597;SDS011;62026;39.230;9.122;2023-08-21T05:57:49;11.10;;;2.97;;
67597;SDS011;62026;39.230;9.122;2023-08-21T06:00:17;9.48;;;3.22;;
67597;SDS011;62026;39.230;9.122;2023-08-21T06:02:44;8.40;;;3.17;;
67597;SDS011;62026;39.230;9.122;2023-08-21T06:05:22;12.88;;;3.33;;
67597;SDS011;62026;39.230;9.122;2023-08-21T06:07:51;6.30;;;3.33;;
67597;SDS011;62026;39.230;9.122;2023-08-21T06:10:17;10.68;;;3.50;;
67597;SDS011;62026;39.230;9.122;2023-08-21T06:12:43;9.68;;;3.30;;
67597;SDS011;62026;39.230;9.122;2023-08-21T06:15:10;6.60;;;3.35;;
67597;SDS011;62026;39.230;9.122;2023-08-21T06:17:37;13.25;;;3.55;;
67597;SDS011;62026;39.230;9.122;2023-08-21T06:20:04;8.77;;;3.38;;
67597;SDS011;62026;39.230;9.122;2023-08-21T06:22:33;7.10;;;3.20;;
67597;SDS011;62026;39.230;9.122;2023-08-21T06:25:00;9.30;;;3.30;;
67597;SDS011;62026;39.230;9.122;2023-08-21T06:27:26;13.05;;;3.40;;
67597;SDS011;62026;39.230;9.122;2023-08-21T06:29:53;6.22;;;3.00;;
67597;SDS011;62026;39.230;9.122;2023-08-21T06:32:19;10.52;;;3.42;;
67597;SDS011;62026;39.230;9.122;2023-08-21T06:34:45;7.78;;;3.30;;
67597;SDS011;62026;39.230;9.122;2023-08-21T06:37:11;7.55;;;3.15;;
67597;SDS011;62026;39.230;9.122;2023-08-21T06:39:38;11.50;;;3.25;;
67597;SDS011;62026;39.230;9.122;2023-08-21T06:42:04;11.73;;;3.38;;
67597;SDS011;62026;39.230;9.122;2023-08-21T06:44:38;10.27;;;3.22;;
67597;SDS011;62026;39.230;9.122;2023-08-21T06:47:05;9.43;;;3.15;;
67597;SDS011;62026;39.230;9.122;2023-08-21T06:49:31;6.18;;;3.13;;
67597;SDS011;62026;39.230;9.122;2023-08-21T06:51:58;9.43;;;3.25;;
67597;SDS011;62026;39.230;9.122;2023-08-21T06:54:24;14.50;;;2.97;;
67597;SDS011;62026;39.230;9.122;2023-08-21T06:56:50;7.55;;;3.13;;
67597;SDS011;62026;39.230;9.122;2023-08-21T06:59:16;10.50;;;3.22;;
67597;SDS011;62026;39.230;9.122;2023-08-21T07:01:42;13.65;;;3.28;;
67597;SDS011;62026;39.230;9.122;2023-08-21T07:04:08;9.77;;;3.28;;
67597;SDS011;62026;39.230;9.122;2023-08-21T07:06:34;42.28;;;4.60;;
67597;SDS011;62026;39.230;9.122;2023-08-21T07:09:00;6.95;;;3.45;;
67597;SDS011;62026;39.230;9.122;2023-08-21T07:11:26;7.95;;;3.08;;
67597;SDS011;62026;39.230;9.122;2023-08-21T07:13:52;8.88;;;3.20;;
67597;SDS011;62026;39.230;9.122;2023-08-21T07:16:18;10.57;;;3.20;;
67597;SDS011;62026;39.230;9.122;2023-08-21T07:18:44;11.13;;;2.88;;
67597;SDS011;62026;39.230;9.122;2023-08-21T07:21:11;9.48;;;2.92;;
67597;SDS011;62026;39.230;9.122;2023-08-21T07:23:36;10.48;;;2.90;;
67597;SDS011;62026;39.230;9.122;2023-08-21T07:26:02;5.97;;;3.00;;
67597;SDS011;62026;39.230;9.122;2023-08-21T07:28:30;6.78;;;2.80;;
67597;SDS011;62026;39.230;9.122;2023-08-21T07:30:56;8.98;;;2.70;;
67597;SDS011;62026;39.230;9.122;2023-08-21T07:33:24;7.53;;;2.55;;
67597;SDS011;62026;39.230;9.122;2023-08-21T07:36:01;15.65;;;3.25;;
67597;SDS011;62026;39.230;9.122;2023-08-21T07:38:29;11.25;;;3.63;;
67597;SDS011;62026;39.230;9.122;2023-08-21T07:41:02;5.95;;;2.60;;
67597;SDS011;62026;39.230;9.122;2023-08-21T07:43:35;15.13;;;2.60;;
67597;SDS011;62026;39.230;9.122;2023-08-21T07:46:06;8.23;;;2.60;;
67597;SDS011;62026;39.230;9.122;2023-08-21T07:48:35;10.43;;;3.35;;
67597;SDS011;62026;39.230;9.122;2023-08-21T07:51:01;11.25;;;3.05;;
67597;SDS011;62026;39.230;9.122;2023-08-21T07:53:27;5.53;;;2.70;;
67597;SDS011;62026;39.230;9.122;2023-08-21T07:55:55;9.65;;;3.90;;
67597;SDS011;62026;39.230;9.122;2023-08-21T07:58:21;9.73;;;3.63;;
67597;SDS011;62026;39.230;9.122;2023-08-21T08:00:47;7.28;;;3.45;;
67597;SDS011;62026;39.230;9.122;2023-08-21T08:03:13;12.07;;;3.40;;
67597;SDS011;62026;39.230;9.122;2023-08-21T08:05:40;7.40;;;2.70;;
67597;SDS011;62026;39.230;9.122;2023-08-21T08:08:07;14.52;;;3.78;;
67597;SDS011;62026;39.230;9.122;2023-08-21T08:10:39;9.00;;;3.00;;
67597;SDS011;62026;39.230;9.122;2023-08-21T08:13:06;5.47;;;2.88;;
67597;SDS011;62026;39.230;9.122;2023-08-21T08:15:33;10.43;;;2.70;;
67597;SDS011;62026;39.230;9.122;2023-08-21T08:18:00;5.30;;;2.75;;
67597;SDS011;62026;39.230;9.122;2023-08-21T08:20:28;8.80;;;2.67;;
67597;SDS011;62026;39.230;9.122;2023-08-21T08:22:54;8.90;;;2.85;;
67597;SDS011;62026;39.230;9.122;2023-08-21T08:25:21;5.05;;;2.72;;
67597;SDS011;62026;39.230;9.122;2023-08-21T08:27:48;4.65;;;2.60;;
67597;SDS011;62026;39.230;9.122;2023-08-21T08:30:14;6.03;;;2.70;;
67597;SDS011;62026;39.230;9.122;2023-08-21T08:32:43;11.73;;;2.67;;
67597;SDS011;62026;39.230;9.122;2023-08-21T08:35:11;4.57;;;2.38;;
67597;SDS011;62026;39.230;9.122;2023-08-21T08:37:39;8.43;;;2.80;;
67597;SDS011;62026;39.230;9.122;2023-08-21T08:40:06;5.32;;;2.70;;
67597;SDS011;62026;39.230;9.122;2023-08-21T08:42:34;8.55;;;2.50;;
67597;SDS011;62026;39.230;9.122;2023-08-21T08:45:02;9.13;;;2.55;;
67597;SDS011;62026;39.230;9.122;2023-08-21T08:47:30;5.50;;;2.95;;
67597;SDS011;62026;39.230;9.122;2023-08-21T08:49:59;10.82;;;2.97;;
67597;SDS011;62026;39.230;9.122;2023-08-21T08:52:34;8.23;;;2.72;;
67597;SDS011;62026;39.230;9.122;2023-08-21T08:55:03;8.52;;;3.03;;
67597;SDS011;62026;39.230;9.122;2023-08-21T08:57:32;11.55;;;2.75;;
67597;SDS011;62026;39.230;9.122;2023-08-21T08:59:59;4.68;;;2.63;;
67597;SDS011;62026;39.230;9.122;2023-08-21T09:02:26;6.57;;;2.60;;
67597;SDS011;62026;39.230;9.122;2023-08-21T09:04:52;7.65;;;2.95;;
67597;SDS011;62026;39.230;9.122;2023-08-21T09:07:18;5.97;;;3.25;;
67597;SDS011;62026;39.230;9.122;2023-08-21T09:09:46;10.07;;;2.80;;
67597;SDS011;62026;39.230;9.122;2023-08-21T09:12:18;8.15;;;3.05;;
67597;SDS011;62026;39.230;9.122;2023-08-21T09:14:45;13.48;;;3.20;;
67597;SDS011;62026;39.230;9.122;2023-08-21T09:17:12;8.27;;;2.90;;
67597;SDS011;62026;39.230;9.122;2023-08-21T09:19:38;7.30;;;3.45;;
67597;SDS011;62026;39.230;9.122;2023-08-21T09:22:09;8.68;;;3.17;;
67597;SDS011;62026;39.230;9.122;2023-08-21T09:24:39;9.63;;;3.13;;
67597;SDS011;62026;39.230;9.122;2023-08-21T09:27:12;9.07;;;3.28;;
67597;SDS011;62026;39.230;9.122;2023-08-21T09:29:41;7.32;;;3.10;;
67597;SDS011;62026;39.230;9.122;2023-08-21T09:32:08;8.25;;;3.20;;
67597;SDS011;62026;39.230;9.122;2023-08-21T09:34:35;10.20;;;3.13;;
67597;SDS011;62026;39.230;9.122;2023-08-21T09:37:06;7.93;;;3.00;;
67597;SDS011;62026;39.230;9.122;2023-08-21T09:42:01;8.48;;;2.90;;
67597;SDS011;62026;39.230;9.122;2023-08-21T09:47:07;6.63;;;2.85;;
67597;SDS011;62026;39.230;9.122;2023-08-21T09:49:37;5.28;;;3.00;;
67597;SDS011;62026;39.230;9.122;2023-08-21T09:52:05;7.00;;;2.90;;
67597;SDS011;62026;39.230;9.122;2023-08-21T09:54:33;5.80;;;2.90;;
67597;SDS011;62026;39.230;9.122;2023-08-21T09:57:03;9.00;;;2.90;;
67597;SDS011;62026;39.230;9.122;2023-08-21T09:59:30;6.15;;;2.88;;
67597;SDS011;62026;39.230;9.122;2023-08-21T10:01:58;6.57;;;2.78;;
67597;SDS011;62026;39.230;9.122;2023-08-21T10:04:29;5.90;;;2.60;;
67597;SDS011;62026;39.230;9.122;2023-08-21T10:06:58;7.60;;;2.95;;
67597;SDS011;62026;39.230;9.122;2023-08-21T10:09:28;7.15;;;2.80;;
67597;SDS011;62026;39.230;9.122;2023-08-21T10:11:55;7.43;;;3.22;;
67597;SDS011;62026;39.230;9.122;2023-08-21T10:14:23;4.60;;;2.70;;
67597;SDS011;62026;39.230;9.122;2023-08-21T10:16:51;6.82;;;2.95;;
67597;SDS011;62026;39.230;9.122;2023-08-21T10:19:18;10.63;;;2.92;;
67597;SDS011;62026;39.230;9.122;2023-08-21T10:21:46;6.55;;;2.90;;
67597;SDS011;62026;39.230;9.122;2023-08-21T10:24:25;8.73;;;3.00;;
67597;SDS011;62026;39.230;9.122;2023-08-21T10:26:53;3.67;;;2.78;;
67597;SDS011;62026;39.230;9.122;2023-08-21T10:29:23;6.60;;;2.58;;
67597;SDS011;62026;39.230;9.122;2023-08-21T10:31:58;6.70;;;3.30;;
67597;SDS011;62026;39.230;9.122;2023-08-21T10:34:33;8.45;;;3.35;;
67597;SDS011;62026;39.230;9.122;2023-08-21T10:37:04;4.93;;;3.22;;
67597;SDS011;62026;39.230;9.122;2023-08-21T10:39:38;9.75;;;3.30;;
67597;SDS011;62026;39.230;9.122;2023-08-21T10:42:22;7.93;;;3.60;;
67597;SDS011;62026;39.230;9.122;2023-08-21T10:45:14;6.38;;;3.45;;
67597;SDS011;62026;39.230;9.122;2023-08-21T10:47:40;8.07;;;3.28;;
67597;SDS011;62026;39.230;9.122;2023-08-21T10:50:06;6.15;;;3.60;;
67597;SDS011;62026;39.230;9.122;2023-08-21T10:52:37;5.28;;;3.25;;
67597;SDS011;62026;39.230;9.122;2023-08-21T10:55:07;12.60;;;3.97;;
67597;SDS011;62026;39.230;9.122;2023-08-21T10:57:37;9.23;;;3.70;;
67597;SDS011;62026;39.230;9.122;2023-08-21T11:00:07;10.75;;;3.72;;
67597;SDS011;62026;39.230;9.122;2023-08-21T11:02:40;7.65;;;3.45;;
67597;SDS011;62026;39.230;9.122;2023-08-21T11:05:09;6.97;;;3.47;;
67597;SDS011;62026;39.230;9.122;2023-08-21T11:07:37;6.47;;;3.70;;
67597;SDS011;62026;39.230;9.122;2023-08-21T11:10:13;7.68;;;3.75;;
67597;SDS011;62026;39.230;9.122;2023-08-21T11:15:21;7.30;;;4.10;;
67597;SDS011;62026;39.230;9.122;2023-08-21T11:17:51;18.75;;;4.13;;
67597;SDS011;62026;39.230;9.122;2023-08-21T11:20:28;5.45;;;3.70;;
67597;SDS011;62026;39.230;9.122;2023-08-21T11:22:59;9.68;;;4.00;;
67597;SDS011;62026;39.230;9.122;2023-08-21T11:25:39;5.65;;;3.60;;
67597;SDS011;62026;39.230;9.122;2023-08-21T11:28:05;7.65;;;4.10;;
67597;SDS011;62026;39.230;9.122;2023-08-21T11:30:33;8.07;;;4.28;;
67597;SDS011;62026;39.230;9.122;2023-08-21T11:33:09;10.48;;;4.30;;
67597;SDS011;62026;39.230;9.122;2023-08-21T11:35:38;5.95;;;4.00;;
67597;SDS011;62026;39.230;9.122;2023-08-21T11:38:05;6.72;;;4.13;;
67597;SDS011;62026;39.230;9.122;2023-08-21T11:40:40;9.32;;;4.28;;
67597;SDS011;62026;39.230;9.122;2023-08-21T11:43:06;10.95;;;4.32;;
67597;SDS011;62026;39.230;9.122;2023-08-21T11:45:33;11.55;;;4.35;;
67597;SDS011;62026;39.230;9.122;2023-08-21T11:48:00;7.88;;;4.50;;
67597;SDS011;62026;39.230;9.122;2023-08-21T11:50:26;9.57;;;4.80;;
67597;SDS011;62026;39.230;9.122;2023-08-21T11:52:54;7.03;;;4.72;;
67597;SDS011;62026;39.230;9.122;2023-08-21T11:55:20;9.30;;;4.40;;
67597;SDS011;62026;39.230;9.122;2023-08-21T11:57:48;7.75;;;4.55;;
67597;SDS011;62026;39.230;9.122;2023-08-21T12:00:16;8.43;;;4.63;;
67597;SDS011;62026;39.230;9.122;2023-08-21T12:02:57;9.70;;;4.70;;
67597;SDS011;62026;39.230;9.122;2023-08-21T12:05:28;10.02;;;4.80;;
67597;SDS011;62026;39.230;9.122;2023-08-21T12:07:54;6.93;;;4.80;;
67597;SDS011;62026;39.230;9.122;2023-08-21T12:10:24;11.32;;;5.18;;
67597;SDS011;62026;39.230;9.122;2023-08-21T12:12:52;15.55;;;5.32;;
67597;SDS011;62026;39.230;9.122;2023-08-21T12:15:18;6.68;;;5.03;;
67597;SDS011;62026;39.230;9.122;2023-08-21T12:17:44;9.60;;;4.93;;
67597;SDS011;62026;39.230;9.122;2023-08-21T12:20:10;8.45;;;5.38;;
67597;SDS011;62026;39.230;9.122;2023-08-21T12:22:37;12.38;;;5.72;;
67597;SDS011;62026;39.230;9.122;2023-08-21T12:25:04;11.90;;;5.50;;
67597;SDS011;62026;39.230;9.122;2023-08-21T12:27:32;11.80;;;5.55;;
67597;SDS011;62026;39.230;9.122;2023-08-21T12:29:58;11.80;;;4.88;;
67597;SDS011;62026;39.230;9.122;2023-08-21T12:32:24;8.95;;;5.10;;
67597;SDS011;62026;39.230;9.122;2023-08-21T12:34:50;10.07;;;5.57;;
67597;SDS011;62026;39.230;9.122;2023-08-21T12:37:17;9.25;;;5.25;;
67597;SDS011;62026;39.230;9.122;2023-08-21T12:39:43;11.70;;;5.97;;
67597;SDS011;62026;39.230;9.122;2023-08-21T12:42:09;13.48;;;5.78;;
67597;SDS011;62026;39.230;9.122;2023-08-21T12:44:35;9.35;;;5.78;;
67597;SDS011;62026;39.230;9.122;2023-08-21T12:47:01;12.23;;;5.88;;
67597;SDS011;62026;39.230;9.122;2023-08-21T12:49:27;8.40;;;6.07;;
67597;SDS011;62026;39.230;9.122;2023-08-21T12:51:53;9.70;;;5.45;;
67597;SDS011;62026;39.230;9.122;2023-08-21T12:54:20;10.27;;;5.28;;
67597;SDS011;62026;39.230;9.122;2023-08-21T12:56:46;13.30;;;5.65;;
67597;SDS011;62026;39.230;9.122;2023-08-21T12:59:13;14.10;;;5.13;;
67597;SDS011;62026;39.230;9.122;2023-08-21T13:01:39;9.38;;;5.20;;
67597;SDS011;62026;39.230;9.122;2023-08-21T13:04:05;12.18;;;5.72;;
67597;SDS011;62026;39.230;9.122;2023-08-21T13:06:31;12.82;;;5.47;;
67597;SDS011;62026;39.230;9.122;2023-08-21T13:08:57;8.30;;;4.70;;
67597;SDS011;62026;39.230;9.122;2023-08-21T13:11:23;13.57;;;5.15;;
67597;SDS011;62026;39.230;9.122;2023-08-21T13:13:49;10.77;;;5.43;;
67597;SDS011;62026;39.230;9.122;2023-08-21T13:16:16;7.70;;;5.18;;
67597;SDS011;62026;39.230;9.122;2023-08-21T13:18:42;11.23;;;5.97;;
67597;SDS011;62026;39.230;9.122;2023-08-21T13:21:07;10.13;;;5.35;;
67597;SDS011;62026;39.230;9.122;2023-08-21T13:23:34;9.52;;;5.32;;
67597;SDS011;62026;39.230;9.122;2023-08-21T13:26:00;8.82;;;5.07;;
67597;SDS011;62026;39.230;9.122;2023-08-21T13:28:26;7.32;;;5.00;;
67597;SDS011;62026;39.230;9.122;2023-08-21T13:30:53;13.50;;;5.10;;
67597;SDS011;62026;39.230;9.122;2023-08-21T13:33:19;11.13;;;5.30;;
67597;SDS011;62026;39.230;9.122;2023-08-21T13:35:45;9.32;;;5.00;;
67597;SDS011;62026;39.230;9.122;2023-08-21T13:38:14;10.13;;;5.55;;
67597;SDS011;62026;39.230;9.122;2023-08-21T13:40:41;11.15;;;4.95;;
67597;SDS011;62026;39.230;9.122;2023-08-21T13:43:07;11.70;;;6.00;;
67597;SDS011;62026;39.230;9.122;2023-08-21T13:45:35;11.75;;;4.93;;
67597;SDS011;62026;39.230;9.122;2023-08-21T13:48:02;7.90;;;5.10;;
67597;SDS011;62026;39.230;9.122;2023-08-21T13:50:29;9.43;;;5.60;;
67597;SDS011;62026;39.230;9.122;2023-08-21T13:52:55;9.77;;;5.57;;
67597;SDS011;62026;39.230;9.122;2023-08-21T13:55:22;11.38;;;4.90;;
67597;SDS011;62026;39.230;9.122;2023-08-21T13:57:48;11.77;;;4.82;;
67597;SDS011;62026;39.230;9.122;2023-08-21T14:00:14;8.98;;;4.82;;
67597;SDS011;62026;39.230;9.122;2023-08-21T14:02:42;9.65;;;5.57;;
67597;SDS011;62026;39.230;9.122;2023-08-21T14:05:09;16.17;;;5.68;;
67597;SDS011;62026;39.230;9.122;2023-08-21T14:07:36;11.40;;;4.68;;
67597;SDS011;62026;39.230;9.122;2023-08-21T14:10:03;9.38;;;5.05;;
67597;SDS011;62026;39.230;9.122;2023-08-21T14:12:30;12.05;;;5.40;;
67597;SDS011;62026;39.230;9.122;2023-08-21T14:15:00;10.05;;;5.10;;
67597;SDS011;62026;39.230;9.122;2023-08-21T14:17:26;9.52;;;5.57;;
67597;SDS011;62026;39.230;9.122;2023-08-21T14:19:52;11.73;;;5.32;;
67597;SDS011;62026;39.230;9.122;2023-08-21T14:22:19;10.95;;;5.97;;
67597;SDS011;62026;39.230;9.122;2023-08-21T14:24:45;8.18;;;5.47;;
67597;SDS011;62026;39.230;9.122;2023-08-21T14:27:11;12.63;;;4.80;;
67597;SDS011;62026;39.230;9.122;2023-08-21T14:29:37;13.05;;;5.18;;
67597;SDS011;62026;39.230;9.122;2023-08-21T14:32:03;9.30;;;4.65;;
67597;SDS011;62026;39.230;9.122;2023-08-21T14:34:29;7.35;;;4.57;;
67597;SDS011;62026;39.230;9.122;2023-08-21T14:36:55;14.48;;;6.05;;
67597;SDS011;62026;39.230;9.122;2023-08-21T14:39:23;10.52;;;5.05;;
67597;SDS011;62026;39.230;9.122;2023-08-21T14:41:56;12.70;;;5.60;;
67597;SDS011;62026;39.230;9.122;2023-08-21T14:44:23;9.15;;;5.30;;
67597;SDS011;62026;39.230;9.122;2023-08-21T14:46:52;8.55;;;5.15;;
67597;SDS011;62026;39.230;9.122;2023-08-21T14:49:20;15.38;;;5.55;;
67597;SDS011;62026;39.230;9.122;2023-08-21T14:51:47;11.13;;;5.18;;
67597;SDS011;62026;39.230;9.122;2023-08-21T14:54:13;13.20;;;5.10;;
67597;SDS011;62026;39.230;9.122;2023-08-21T14:56:39;14.73;;;5.30;;